createdAt,value
2023-02-12T00:00:05.591Z,4.10
2023-02-12T00:02:34.734Z,4.10
2023-02-12T00:05:04.019Z,4.20
2023-02-12T00:07:31.397Z,4.20
2023-02-12T00:10:00.500Z,4.20
2023-02-12T00:12:29.513Z,4.20
2023-02-12T00:14:56.144Z,4.20
2023-02-12T00:17:22.798Z,4.20
2023-02-12T00:19:49.424Z,4.20
2023-02-12T00:22:16.020Z,4.20
2023-02-12T00:24:42.654Z,4.20
2023-02-12T00:27:11.675Z,4.20
2023-02-12T00:29:38.478Z,4.10
2023-02-12T00:32:07.287Z,4.10
2023-02-12T00:34:38.831Z,4.10
2023-02-12T00:37:07.933Z,4.20
2023-02-12T00:39:37.874Z,4.20
2023-02-12T00:42:04.568Z,4.20
2023-02-12T00:44:31.228Z,4.20
2023-02-12T00:46:57.910Z,4.20
2023-02-12T00:49:24.640Z,4.20
2023-02-12T00:51:51.223Z,4.20
2023-02-12T00:54:18.517Z,4.20
2023-02-12T00:56:47.295Z,4.20
2023-02-12T00:59:18.835Z,4.20
2023-02-12T01:01:50.488Z,4.30
2023-02-12T01:04:17.267Z,4.30
2023-02-12T01:06:44.244Z,4.20
2023-02-12T01:09:11.131Z,4.20
2023-02-12T01:11:40.330Z,4.30
2023-02-12T01:14:07.332Z,4.20
2023-02-12T01:16:36.572Z,4.20
2023-02-12T01:19:04.333Z,4.20
2023-02-12T01:21:32.044Z,4.20
2023-02-12T01:24:04.064Z,4.20
2023-02-12T01:26:30.944Z,4.10
2023-02-12T01:28:58.531Z,4.20
2023-02-12T01:31:28.121Z,4.20
2023-02-12T01:33:56.260Z,4.20
2023-02-12T01:36:25.412Z,4.20
2023-02-12T01:38:52.248Z,4.20
2023-02-12T01:41:23.323Z,4.10
2023-02-12T01:44:11.401Z,4.10
2023-02-12T01:46:38.245Z,4.10
2023-02-12T01:49:07.084Z,4.00
2023-02-12T01:51:34.226Z,4.10
2023-02-12T01:54:02.931Z,4.10
2023-02-12T01:56:29.703Z,4.10
2023-02-12T01:58:57.722Z,4.10
2023-02-12T02:01:28.579Z,4.10
2023-02-12T02:03:57.451Z,4.00
2023-02-12T02:06:29.954Z,4.00
2023-02-12T02:08:56.814Z,4.10
2023-02-12T02:11:41.845Z,4.00
2023-02-12T02:14:26.954Z,4.10
2023-02-12T02:17:11.053Z,4.00
2023-02-12T02:19:49.954Z,4.00
2023-02-12T02:22:16.521Z,4.00
2023-02-12T02:25:02.004Z,4.10
2023-02-12T02:27:49.996Z,4.10
2023-02-12T02:30:19.627Z,4.20
2023-02-12T02:33:07.593Z,4.10
2023-02-12T02:35:41.606Z,4.10
2023-02-12T02:38:17.021Z,4.10
2023-02-12T02:40:46.757Z,4.10
2023-02-12T02:43:20.804Z,4.10
2023-02-12T02:45:51.063Z,4.10
2023-02-12T02:48:20.199Z,4.10
2023-02-12T02:50:49.362Z,4.00
2023-02-12T02:53:19.866Z,4.10
2023-02-12T02:55:49.598Z,4.10
2023-02-12T02:58:18.613Z,4.10
2023-02-12T03:00:49.459Z,4.00
2023-02-12T03:03:16.081Z,4.00
2023-02-12T03:05:47.168Z,4.10
2023-02-12T03:08:24.300Z,4.10
2023-02-12T03:11:01.506Z,4.10
2023-02-12T03:13:37.014Z,4.20
2023-02-12T03:16:07.932Z,4.10
2023-02-12T03:18:37.026Z,4.20
2023-02-12T03:21:07.938Z,4.10
2023-02-12T03:23:54.832Z,4.20
2023-02-12T03:26:23.539Z,4.10
2023-02-12T03:28:50.820Z,4.10
2023-02-12T03:31:29.431Z,4.10
2023-02-12T03:34:08.473Z,4.10
2023-02-12T03:36:45.568Z,4.10
2023-02-12T03:39:16.302Z,4.10
2023-02-12T03:41:47.833Z,4.20
2023-02-12T03:44:31.273Z,4.10
2023-02-12T03:47:00.926Z,4.20
2023-02-12T03:49:31.331Z,4.10
2023-02-12T03:51:58.620Z,4.10
2023-02-12T03:54:25.450Z,4.10
2023-02-12T03:56:52.537Z,4.20
2023-02-12T03:59:23.178Z,4.10
2023-02-12T04:01:53.277Z,4.20
2023-02-12T04:04:22.442Z,4.20
2023-02-12T04:06:49.894Z,4.20
2023-02-12T04:09:17.123Z,4.10
2023-02-12T04:11:43.740Z,4.10
2023-02-12T04:14:22.504Z,4.10
2023-02-12T04:16:51.860Z,4.10
2023-02-12T04:19:25.737Z,4.10
2023-02-12T04:22:11.141Z,4.00
2023-02-12T04:25:01.157Z,4.00
2023-02-12T04:27:48.513Z,4.00
2023-02-12T04:30:26.306Z,4.00
2023-02-12T04:32:55.535Z,4.10
2023-02-12T04:35:24.928Z,4.10
2023-02-12T04:38:01.959Z,4.10
2023-02-12T04:40:30.171Z,4.10
2023-02-12T04:42:56.813Z,4.00
2023-02-12T04:45:33.748Z,4.00
2023-02-12T04:48:05.538Z,4.00
2023-02-12T04:50:42.691Z,4.10
2023-02-12T04:53:12.462Z,4.00
2023-02-12T04:55:39.035Z,4.00
2023-02-12T04:58:06.083Z,4.10
2023-02-12T05:00:35.171Z,4.10
2023-02-12T05:03:01.815Z,4.10
2023-02-12T05:05:30.886Z,4.20
2023-02-12T05:07:57.617Z,4.10
2023-02-12T05:10:24.201Z,4.10
2023-02-12T05:12:54.329Z,4.10
2023-02-12T05:15:21.094Z,4.10
2023-02-12T05:17:47.718Z,4.10
2023-02-12T05:20:14.642Z,4.00
2023-02-12T05:22:41.708Z,3.90
2023-02-12T05:25:08.400Z,3.90
2023-02-12T05:27:35.121Z,3.90
2023-02-12T05:30:02.605Z,3.90
2023-02-12T05:32:29.243Z,3.90
2023-02-12T05:34:55.830Z,3.90
2023-02-12T05:37:24.583Z,3.80
2023-02-12T05:39:51.165Z,3.80
2023-02-12T05:42:17.744Z,3.80
2023-02-12T05:44:44.349Z,3.80
2023-02-12T05:47:11.020Z,3.80
2023-02-12T05:49:37.613Z,3.80
2023-02-12T05:52:04.295Z,3.80
2023-02-12T05:54:30.956Z,3.80
2023-02-12T05:56:57.582Z,3.80
2023-02-12T05:59:24.264Z,3.80
2023-02-12T06:01:51.705Z,3.70
2023-02-12T06:04:23.575Z,3.80
2023-02-12T06:06:51.243Z,3.80
2023-02-12T06:09:17.868Z,3.80
2023-02-12T06:11:47.097Z,3.80
2023-02-12T06:14:15.874Z,3.80
2023-02-12T06:16:45.045Z,3.80
2023-02-12T06:19:14.143Z,3.90
2023-02-12T06:21:40.751Z,3.90
2023-02-12T06:24:07.656Z,3.90
2023-02-12T06:26:34.263Z,3.90
2023-02-12T06:29:01.274Z,3.90
2023-02-12T06:31:29.600Z,3.90
2023-02-12T06:33:57.623Z,3.90
2023-02-12T06:36:24.712Z,3.90
2023-02-12T06:38:51.789Z,3.90
2023-02-12T06:41:21.075Z,3.90
2023-02-12T06:43:47.682Z,3.90
2023-02-12T06:46:14.702Z,3.90
2023-02-12T06:48:41.607Z,4.00
2023-02-12T06:51:18.180Z,4.00
2023-02-12T06:53:45.090Z,4.00
2023-02-12T06:56:13.247Z,4.00
2023-02-12T06:58:40.873Z,4.00
2023-02-12T07:01:08.100Z,4.00
2023-02-12T07:03:34.817Z,4.00
2023-02-12T07:06:03.364Z,4.10
2023-02-12T07:08:30.029Z,4.10
2023-02-12T07:10:56.657Z,4.10
2023-02-12T07:13:25.789Z,4.10
2023-02-12T07:15:52.454Z,4.10
2023-02-12T07:18:21.582Z,4.10
2023-02-12T07:20:50.603Z,4.10
2023-02-12T07:23:17.193Z,4.20
2023-02-12T07:25:43.866Z,4.20
2023-02-12T07:28:10.482Z,4.30
2023-02-12T07:30:37.507Z,4.30
2023-02-12T07:33:04.187Z,4.40
2023-02-12T07:35:30.971Z,4.40
2023-02-12T07:38:00.220Z,4.50
2023-02-12T07:40:26.830Z,4.60
2023-02-12T07:42:56.882Z,4.60
2023-02-12T07:45:24.244Z,4.60
2023-02-12T07:47:54.009Z,4.60
2023-02-12T07:50:20.578Z,4.60
2023-02-12T07:52:50.013Z,4.70
2023-02-12T07:55:17.023Z,4.80
2023-02-12T07:57:43.714Z,4.80
2023-02-12T08:00:12.740Z,4.90
2023-02-12T08:02:39.518Z,4.80
2023-02-12T08:05:06.383Z,4.90
2023-02-12T08:07:33.014Z,4.90
2023-02-12T08:09:59.664Z,5.00
2023-02-12T08:12:26.358Z,5.10
2023-02-12T08:14:54.356Z,5.20
2023-02-12T08:17:21.024Z,5.20
2023-02-12T08:19:47.675Z,5.30
2023-02-12T08:22:14.353Z,5.40
2023-02-12T08:24:42.372Z,5.40
2023-02-12T08:27:09.128Z,5.50
2023-02-12T08:29:36.056Z,5.60
2023-02-12T08:32:06.505Z,5.70
2023-02-12T08:34:36.735Z,5.70
2023-02-12T08:37:05.492Z,5.80
2023-02-12T08:39:34.376Z,5.80
2023-02-12T08:42:03.461Z,5.80
2023-02-12T08:44:30.359Z,5.90
2023-02-12T08:46:57.029Z,6.00
2023-02-12T08:49:25.135Z,6.10
2023-02-12T08:51:53.193Z,6.20
2023-02-12T08:54:21.285Z,6.30
2023-02-12T08:56:48.038Z,6.40
2023-02-12T08:59:15.401Z,6.50
2023-02-12T09:01:42.549Z,6.60
2023-02-12T09:04:17.986Z,6.70
2023-02-12T09:06:45.396Z,6.90
2023-02-12T09:09:12.041Z,7.00
2023-02-12T09:11:38.741Z,7.10
2023-02-12T09:14:06.525Z,7.20
2023-02-12T09:16:34.245Z,7.40
2023-02-12T09:19:00.954Z,7.50
2023-02-12T09:21:27.654Z,7.50
2023-02-12T09:23:56.629Z,7.60
2023-02-12T09:26:25.684Z,7.50
2023-02-12T09:28:52.738Z,7.60
2023-02-12T09:31:26.350Z,7.70
2023-02-12T09:33:56.490Z,7.70
2023-02-12T09:36:23.214Z,7.80
2023-02-12T09:38:53.930Z,7.90
2023-02-12T09:41:29.646Z,7.90
2023-02-12T09:44:03.112Z,7.90
2023-02-12T09:46:35.709Z,7.90
2023-02-12T09:49:20.132Z,8.00
2023-02-12T09:51:51.575Z,8.10
2023-02-12T09:54:19.763Z,8.20
2023-02-12T09:56:48.970Z,8.40
2023-02-12T09:59:31.751Z,8.40
2023-02-12T10:01:59.197Z,8.50
2023-02-12T10:04:27.577Z,8.70
2023-02-12T10:07:01.999Z,8.80
2023-02-12T10:09:34.544Z,8.90
2023-02-12T10:12:19.929Z,8.90
2023-02-12T10:14:49.248Z,9.00
2023-02-12T10:17:15.833Z,9.00
2023-02-12T10:20:21.170Z,9.00
2023-02-12T10:23:11.263Z,9.10
2023-02-12T10:26:01.215Z,9.10
2023-02-12T10:28:35.765Z,9.20
2023-02-12T10:31:04.238Z,9.30
2023-02-12T10:33:39.432Z,9.40
2023-02-12T10:36:34.678Z,9.50
2023-02-12T10:39:02.739Z,9.60
2023-02-12T10:41:33.008Z,9.60
2023-02-12T10:43:59.717Z,9.60
2023-02-12T10:46:29.962Z,9.70
2023-02-12T10:48:58.885Z,9.60
2023-02-12T10:51:25.565Z,9.50
2023-02-12T10:53:52.217Z,9.50
2023-02-12T10:56:20.150Z,9.50
2023-02-12T10:58:49.545Z,9.60
2023-02-12T11:01:33.098Z,9.60
2023-02-12T11:04:00.433Z,9.60
2023-02-12T11:06:33.317Z,9.60
2023-02-12T11:09:00.078Z,9.60
2023-02-12T11:11:33.077Z,9.70
2023-02-12T11:14:04.446Z,9.80
2023-02-12T11:16:34.739Z,9.80
2023-02-12T11:19:02.954Z,9.80
2023-02-12T11:21:29.690Z,9.70
2023-02-12T11:23:56.766Z,9.70
2023-02-12T11:26:24.869Z,9.70
2023-02-12T11:29:02.271Z,9.80
2023-02-12T11:31:29.082Z,9.80
2023-02-12T11:34:14.093Z,9.80
2023-02-12T11:36:48.153Z,9.80
2023-02-12T11:39:21.366Z,9.90
2023-02-12T11:41:51.115Z,9.80
2023-02-12T11:44:19.969Z,9.80
2023-02-12T11:46:53.563Z,9.80
2023-02-12T11:49:23.734Z,9.80
2023-02-12T11:51:50.820Z,9.80
2023-02-12T11:54:19.917Z,9.80
2023-02-12T11:56:46.862Z,9.80
2023-02-12T11:59:31.475Z,9.90
2023-02-12T12:02:03.513Z,10.00
2023-02-12T12:04:32.706Z,10.10
2023-02-12T12:07:08.014Z,10.10
2023-02-12T12:09:49.642Z,10.00
2023-02-12T12:12:20.261Z,10.10
2023-02-12T12:15:08.268Z,10.10
2023-02-12T12:18:13.310Z,10.10
2023-02-12T12:20:49.399Z,10.10
2023-02-12T12:23:18.768Z,10.30
2023-02-12T12:25:47.729Z,10.30
2023-02-12T12:28:34.979Z,10.30
2023-02-12T12:31:04.815Z,10.30
2023-02-12T12:33:33.583Z,10.30
2023-02-12T12:36:00.319Z,10.30
2023-02-12T12:38:45.767Z,10.30
2023-02-12T12:41:15.461Z,10.20
2023-02-12T12:43:47.015Z,10.20
2023-02-12T12:46:16.138Z,10.20
2023-02-12T12:49:03.275Z,10.20
2023-02-12T12:51:32.911Z,10.20
2023-02-12T12:54:14.922Z,10.30
2023-02-12T12:56:47.349Z,10.20
2023-02-12T12:59:17.199Z,10.20
2023-02-12T13:02:19.063Z,10.30
2023-02-12T13:05:09.075Z,10.30
2023-02-12T13:07:41.391Z,10.10
2023-02-12T13:10:13.995Z,10.10
2023-02-12T13:12:40.699Z,10.20
2023-02-12T13:15:13.255Z,10.30
2023-02-12T13:17:45.904Z,10.30
2023-02-12T13:20:30.776Z,10.30
2023-02-12T13:22:59.851Z,10.30
2023-02-12T13:25:32.082Z,10.30
2023-02-12T13:28:00.394Z,10.30
2023-02-12T13:30:30.314Z,10.30
2023-02-12T13:33:05.925Z,10.30
2023-02-12T13:35:34.021Z,10.20
2023-02-12T13:38:01.551Z,10.20
2023-02-12T13:40:29.262Z,10.10
2023-02-12T13:43:00.457Z,10.10
2023-02-12T13:45:33.153Z,10.00
2023-02-12T13:48:06.156Z,9.90
2023-02-12T13:50:38.632Z,9.80
2023-02-12T13:53:39.475Z,9.70
2023-02-12T13:56:09.577Z,9.70
2023-02-12T13:58:39.132Z,9.70
2023-02-12T14:01:12.921Z,9.70
2023-02-12T14:03:39.783Z,9.70
2023-02-12T14:06:14.185Z,9.60
2023-02-12T14:08:42.490Z,9.60
2023-02-12T14:11:12.007Z,9.60
2023-02-12T14:14:05.365Z,9.60
2023-02-12T14:16:51.976Z,9.60
2023-02-12T14:19:38.890Z,9.60
2023-02-12T14:22:34.289Z,9.60
2023-02-12T14:25:02.718Z,9.60
2023-02-12T14:27:33.331Z,9.60
2023-02-12T14:30:25.719Z,9.60
2023-02-12T14:33:02.905Z,9.60
2023-02-12T14:35:32.738Z,9.60
2023-02-12T14:38:18.941Z,9.70
2023-02-12T14:40:47.172Z,9.50
2023-02-12T14:43:31.018Z,9.60
2023-02-12T14:46:01.975Z,9.50
2023-02-12T14:48:47.665Z,9.50
2023-02-12T14:51:23.194Z,9.50
2023-02-12T14:53:54.096Z,9.50
2023-02-12T14:56:22.394Z,9.50
2023-02-12T14:58:54.323Z,9.50
2023-02-12T15:01:39.665Z,9.50
2023-02-12T15:04:12.836Z,9.50
2023-02-12T15:07:00.242Z,9.50
2023-02-12T15:09:38.249Z,9.50
2023-02-12T15:12:07.686Z,9.50
2023-02-12T15:14:40.122Z,9.40
2023-02-12T15:17:07.436Z,9.40
2023-02-12T15:19:34.171Z,9.40
2023-02-12T15:22:01.480Z,9.40
2023-02-12T15:24:34.379Z,9.30
2023-02-12T15:27:06.384Z,9.30
2023-02-12T15:29:53.454Z,9.30
2023-02-12T15:32:29.734Z,9.30
2023-02-12T15:34:59.265Z,9.20
2023-02-12T15:37:30.502Z,9.30
2023-02-12T15:40:01.601Z,9.30
2023-02-12T15:42:30.036Z,9.20
2023-02-12T15:45:25.044Z,9.20
2023-02-12T15:48:04.206Z,9.10
2023-02-12T15:50:32.162Z,9.00
2023-02-12T15:53:01.435Z,8.90
2023-02-12T15:55:30.526Z,8.90
2023-02-12T15:58:01.587Z,8.80
2023-02-12T16:00:39.879Z,8.70
2023-02-12T16:03:06.618Z,8.60
2023-02-12T16:05:35.161Z,8.50
2023-02-12T16:08:02.191Z,8.40
2023-02-12T16:10:28.927Z,8.30
2023-02-12T16:12:55.637Z,8.20
2023-02-12T16:15:27.154Z,8.10
2023-02-12T16:17:53.943Z,8.00
2023-02-12T16:20:24.845Z,7.90
2023-02-12T16:22:52.449Z,7.70
2023-02-12T16:25:29.527Z,7.60
2023-02-12T16:28:01.634Z,7.60
2023-02-12T16:30:28.340Z,7.50
2023-02-12T16:32:55.181Z,7.30
2023-02-12T16:35:25.200Z,7.20
2023-02-12T16:37:56.326Z,7.10
2023-02-12T16:40:27.313Z,7.00
2023-02-12T16:42:53.986Z,6.90
2023-02-12T16:45:34.160Z,6.80
2023-02-12T16:48:06.212Z,6.70
2023-02-12T16:50:35.806Z,6.60
2023-02-12T16:53:22.723Z,6.40
2023-02-12T16:55:51.978Z,6.30
2023-02-12T16:58:20.715Z,6.20
2023-02-12T17:00:47.963Z,6.10
2023-02-12T17:03:15.776Z,6.00
2023-02-12T17:05:45.417Z,5.90
2023-02-12T17:08:19.632Z,5.80
2023-02-12T17:10:48.126Z,5.70
2023-02-12T17:13:15.171Z,5.60
2023-02-12T17:15:55.344Z,5.50
2023-02-12T17:18:22.830Z,5.50
2023-02-12T17:20:52.912Z,5.40
2023-02-12T17:23:19.828Z,5.40
2023-02-12T17:25:46.487Z,5.40
2023-02-12T17:28:13.259Z,5.30
2023-02-12T17:30:39.982Z,5.20
2023-02-12T17:33:09.136Z,5.00
2023-02-12T17:35:37.164Z,4.90
2023-02-12T17:38:03.933Z,4.80
2023-02-12T17:40:30.513Z,4.70
2023-02-12T17:43:00.006Z,4.60
2023-02-12T17:45:26.725Z,4.60
2023-02-12T17:47:53.644Z,4.50
2023-02-12T17:50:25.204Z,4.50
2023-02-12T17:52:51.878Z,4.40
2023-02-12T17:55:18.634Z,4.30
2023-02-12T17:57:45.292Z,4.30
2023-02-12T18:00:14.915Z,4.30
2023-02-12T18:02:41.537Z,4.20
2023-02-12T18:05:08.711Z,4.10
2023-02-12T18:07:35.965Z,4.00
2023-02-12T18:10:02.858Z,3.90
2023-02-12T18:12:30.271Z,3.80
2023-02-12T18:15:00.469Z,3.80
2023-02-12T18:17:27.336Z,3.80
2023-02-12T18:19:56.651Z,3.80
2023-02-12T18:22:23.692Z,3.80
2023-02-12T18:24:52.723Z,3.80
2023-02-12T18:27:21.776Z,3.70
2023-02-12T18:29:50.791Z,3.60
2023-02-12T18:32:17.461Z,3.50
2023-02-12T18:34:44.250Z,3.40
2023-02-12T18:37:14.639Z,3.40
2023-02-12T18:39:41.276Z,3.40
2023-02-12T18:42:09.245Z,3.40
2023-02-12T18:44:35.959Z,3.20
2023-02-12T18:47:04.913Z,3.20
2023-02-12T18:49:31.563Z,3.10
2023-02-12T18:51:58.216Z,3.00
2023-02-12T18:54:31.285Z,3.00
2023-02-12T18:56:57.876Z,2.90
2023-02-12T18:59:27.423Z,2.90
2023-02-12T19:01:56.716Z,2.80
2023-02-12T19:04:24.307Z,2.80
2023-02-12T19:06:52.334Z,2.80
2023-02-12T19:09:20.752Z,2.70
2023-02-12T19:11:48.285Z,2.70
2023-02-12T19:14:21.321Z,2.60
2023-02-12T19:16:50.480Z,2.50
2023-02-12T19:19:21.060Z,2.40
2023-02-12T19:21:47.764Z,2.40
2023-02-12T19:24:15.221Z,2.30
2023-02-12T19:26:44.364Z,2.30
2023-02-12T19:29:11.464Z,2.40
2023-02-12T19:31:39.266Z,2.30
2023-02-12T19:34:13.412Z,2.30
2023-02-12T19:36:40.472Z,2.20
2023-02-12T19:39:09.275Z,2.30
2023-02-12T19:41:41.138Z,2.20
2023-02-12T19:44:10.550Z,2.30
2023-02-12T19:46:38.932Z,2.30
2023-02-12T19:49:05.806Z,2.30
2023-02-12T19:51:32.761Z,2.30
2023-02-12T19:54:02.976Z,2.20
2023-02-12T19:56:29.974Z,2.10
2023-02-12T19:58:57.329Z,2.10
2023-02-12T20:01:26.982Z,2.00
2023-02-12T20:03:54.078Z,2.00
2023-02-12T20:06:22.232Z,2.00
2023-02-12T20:08:51.364Z,1.90
2023-02-12T20:11:19.655Z,2.00
2023-02-12T20:13:46.256Z,2.00
2023-02-12T20:16:16.575Z,1.90
2023-02-12T20:18:44.118Z,1.80
2023-02-12T20:21:14.033Z,1.80
2023-02-12T20:23:40.662Z,1.80
2023-02-12T20:26:08.533Z,1.70
2023-02-12T20:28:41.582Z,1.70
2023-02-12T20:31:15.361Z,1.60
2023-02-12T20:33:42.483Z,1.50
2023-02-12T20:36:09.374Z,1.50
2023-02-12T20:38:38.343Z,1.40
2023-02-12T20:41:05.908Z,1.40
2023-02-12T20:43:35.958Z,1.30
2023-02-12T20:46:05.850Z,1.40
2023-02-12T20:48:32.516Z,1.30
2023-02-12T20:51:06.040Z,1.20
2023-02-12T20:53:35.590Z,1.20
2023-02-12T20:56:03.894Z,1.10
2023-02-12T20:58:32.893Z,1.10
2023-02-12T21:01:03.512Z,1.10
2023-02-12T21:03:32.647Z,1.10
2023-02-12T21:06:04.300Z,1.00
2023-02-12T21:08:31.192Z,1.10
2023-02-12T21:11:04.521Z,1.10
2023-02-12T21:13:31.401Z,1.20
2023-02-12T21:16:08.834Z,1.20
2023-02-12T21:18:37.915Z,1.10
2023-02-12T21:21:05.625Z,1.00
2023-02-12T21:23:35.487Z,0.90
2023-02-12T21:26:08.693Z,0.90
2023-02-12T21:28:35.843Z,0.80
2023-02-12T21:31:15.815Z,0.70
2023-02-12T21:33:48.074Z,0.70
2023-02-12T21:36:15.821Z,0.70
2023-02-12T21:38:43.333Z,0.70
2023-02-12T21:41:09.930Z,0.70
2023-02-12T21:43:39.922Z,0.70
2023-02-12T21:46:11.268Z,0.70
2023-02-12T21:48:39.305Z,0.70
2023-02-12T21:51:06.152Z,0.70
2023-02-12T21:53:34.946Z,0.70
2023-02-12T21:56:04.462Z,0.60
2023-02-12T21:58:31.148Z,0.70
2023-02-12T22:01:07.439Z,0.70
2023-02-12T22:03:34.121Z,0.70
2023-02-12T22:06:01.628Z,0.70
2023-02-12T22:08:28.245Z,0.60
2023-02-12T22:10:55.406Z,0.70
2023-02-12T22:13:22.311Z,0.60
2023-02-12T22:15:48.972Z,0.70
2023-02-12T22:18:15.677Z,0.70
2023-02-12T22:20:44.441Z,0.70
2023-02-12T22:23:11.637Z,0.80
2023-02-12T22:25:38.458Z,0.70
2023-02-12T22:28:07.413Z,0.50
2023-02-12T22:30:36.175Z,0.50
2023-02-12T22:33:02.777Z,0.40
2023-02-12T22:35:29.462Z,0.50
2023-02-12T22:37:58.574Z,0.50
2023-02-12T22:40:25.261Z,0.40
2023-02-12T22:42:51.926Z,0.40
2023-02-12T22:45:18.977Z,0.30
2023-02-12T22:47:45.592Z,0.20
2023-02-12T22:50:14.752Z,0.20
2023-02-12T22:52:43.793Z,0.30
2023-02-12T22:55:15.365Z,0.30
2023-02-12T22:57:41.984Z,0.30
2023-02-12T23:00:08.895Z,0.30
2023-02-12T23:02:35.584Z,0.40
2023-02-12T23:05:04.620Z,0.40
2023-02-12T23:07:31.356Z,0.50
2023-02-12T23:09:57.980Z,0.60
2023-02-12T23:12:27.126Z,0.60
2023-02-12T23:14:56.227Z,0.50
2023-02-12T23:17:25.363Z,0.60
2023-02-12T23:19:54.436Z,0.50
2023-02-12T23:22:21.042Z,0.50
2023-02-12T23:24:51.020Z,0.50
2023-02-12T23:27:20.268Z,0.50
2023-02-12T23:29:46.869Z,0.40
2023-02-12T23:32:13.515Z,0.50
2023-02-12T23:34:42.060Z,0.40
2023-02-12T23:37:08.674Z,0.50
2023-02-12T23:39:40.167Z,0.50
2023-02-12T23:42:06.834Z,0.60
2023-02-12T23:44:35.892Z,0.50
2023-02-12T23:47:02.565Z,0.50
2023-02-12T23:49:29.460Z,0.50
2023-02-12T23:51:58.496Z,0.40
2023-02-12T23:54:25.104Z,0.40
2023-02-12T23:56:56.650Z,0.40
2023-02-12T23:59:25.828Z,0.40
